createdAt,value
2023-01-15T00:12:44.963Z,95
2023-01-15T00:22:45.684Z,95
2023-01-15T00:32:46.358Z,95
2023-01-15T00:42:53.871Z,96
2023-01-15T00:52:48.046Z,95
2023-01-15T01:02:49.042Z,95
2023-01-15T01:12:49.399Z,96
2023-01-15T01:52:51.326Z,97
2023-01-15T02:12:52.833Z,97
2023-01-15T02:22:53.354Z,98
2023-01-15T02:32:53.509Z,97
2023-01-15T02:42:53.646Z,97
2023-01-15T02:52:54.690Z,97
2023-01-15T03:02:55.060Z,97
2023-01-15T03:12:56.101Z,97
2023-01-15T03:22:56.729Z,97
2023-01-15T03:32:57.248Z,97
2023-01-15T03:42:57.905Z,97
2023-01-15T03:52:58.640Z,97
2023-01-15T04:02:58.921Z,97
2023-01-15T04:12:59.465Z,97
2023-01-15T04:23:00.364Z,98
2023-01-15T04:33:00.724Z,97
2023-01-15T04:43:01.096Z,98
2023-01-15T04:53:01.987Z,97
2023-01-15T05:13:03.898Z,97
2023-01-15T05:23:04.386Z,97
2023-01-15T05:33:05.411Z,97
2023-01-15T05:43:06.028Z,97
2023-01-15T05:53:06.094Z,97
2023-01-15T06:03:06.226Z,98
2023-01-15T06:13:07.171Z,98
2023-01-15T06:23:07.860Z,97
2023-01-15T06:33:08.320Z,97
2023-01-15T06:43:08.479Z,97
2023-01-15T06:53:09.469Z,97
2023-01-15T07:03:10.449Z,97
2023-01-15T07:13:10.761Z,97
2023-01-15T07:33:12.221Z,97
2023-01-15T07:43:12.819Z,97
2023-01-15T07:53:13.505Z,97
2023-01-15T08:03:14.476Z,97
2023-01-15T08:13:15.178Z,97
2023-01-15T08:23:15.625Z,97
2023-01-15T08:33:16.275Z,96
2023-01-15T08:43:16.546Z,97
2023-01-15T08:53:16.912Z,95
2023-01-15T09:03:17.424Z,95
2023-01-15T09:13:17.776Z,94
2023-01-15T09:23:18.662Z,95
2023-01-15T09:33:19.385Z,95
2023-01-15T09:43:19.840Z,94
2023-01-15T09:53:20.651Z,93
2023-01-15T10:03:21.219Z,94
2023-01-15T10:03:43.010Z,94
2023-01-15T10:13:27.619Z,94
2023-01-15T10:23:28.225Z,93
2023-01-15T10:33:30.589Z,93
2023-01-15T10:43:29.656Z,93
2023-01-15T10:53:29.987Z,91
2023-01-15T11:03:30.939Z,91
2023-01-15T11:23:31.888Z,90
2023-01-15T11:33:32.690Z,90
2023-01-15T11:43:32.776Z,90
2023-01-15T11:53:33.777Z,90
2023-01-15T12:03:34.397Z,90
2023-01-15T12:13:34.359Z,90
2023-01-15T12:23:34.713Z,90
2023-01-15T12:33:35.051Z,90
2023-01-15T12:43:35.509Z,90
2023-01-15T12:53:36.062Z,90
2023-01-15T13:03:36.191Z,90
2023-01-15T13:23:37.779Z,91
2023-01-15T14:03:39.819Z,90
2023-01-15T14:23:40.856Z,90
2023-01-15T14:43:41.146Z,90
2023-01-15T14:53:41.902Z,90
2023-01-15T15:03:42.009Z,90
2023-01-15T15:23:43.455Z,90
2023-01-15T15:33:43.500Z,89
2023-01-15T15:53:44.503Z,90
2023-01-15T16:03:45.197Z,90
2023-01-15T16:13:45.829Z,91
2023-01-15T16:23:46.790Z,90
2023-01-15T17:13:49.220Z,91
2023-01-15T17:23:49.266Z,92
2023-01-15T17:43:49.681Z,91
2023-01-15T18:03:50.719Z,91
2023-01-15T18:23:51.478Z,91
2023-01-15T18:33:52.092Z,92
2023-01-15T18:53:52.695Z,93
2023-01-15T19:13:53.662Z,93
2023-01-15T19:23:54.302Z,95
2023-01-15T19:33:55.331Z,95
2023-01-15T20:33:58.420Z,92
2023-01-15T20:53:59.232Z,91
2023-01-15T21:03:59.813Z,91
2023-01-15T21:14:00.215Z,91
2023-01-15T21:24:00.551Z,92
2023-01-15T21:44:01.162Z,93
